Phoneton, Ohio
Current Conditions -  °F | °C
As of 6:56 AM on Tuesday 27 Jan 2015 (Local Time) from KDAY Reporting Station
Haze Haze  
Wind Chill: 13°   Ceiling: 15000
Heat Index: 13°   Visibility: 6mi
Dew Point: 10°   Wind: 0mph
Humidity: 88%   Direction: NA
Pressure: 29.99"   Gusts: NA
Location:  39.9332°N, 84.1192°W
Report Text: KDAY 271156Z 00000KT 6SM BR FEW110 OVC150 M11/M12 A2999 RMK AO2 SLP174 4/003 T11061122 11089 21106 53021
Loading
Personal Weather Stations






























Interactive Weather Map New forecast layout! Learn more

10-Day Weather Forecast

Advertisements
Track Severe Weather on mobile